Aston Sandford, United Kingdom
Current Conditions -  °F | °C
As of 10:50 PM on Tuesday 25 Nov 2014 (Local Time) from EGUB Reporting Station
Drizzle Drizzle  
Wind Chill: 39°   Ceiling: 800
Heat Index: 43°   Visibility: 1.8mi
Dew Point: 43°   Wind: 6mph
Humidity: 100%   Direction: 90°E
Pressure: 30"   Gusts: NA
Location:  51.75°N, 0.79°W
Report Text: EGUB 252250Z 09005KT 3000 -DZ FEW006 BKN008 06/06 Q1016 YLO1
Loading
Personal Weather Stations






























Interactive Weather Map New forecast layout! Learn more

10-Day Weather Forecast

Advertisements
Track Severe Weather on mobile